Time;durP1;ratioP1;P1;durP2;ratioP2;P2;SDS_P1;SDS_P2;PMS_P1;PMS_P2;Temp;Humidity;BMP_temperature;BMP_pressure;BME280_temperature;BME280_humidity;BME280_pressure;Samples;Min_cycle;Max_cycle;Signal;HPM_P1;HPM_P2
2022/07/15 00:00:24;;;;;;;6.00;1.93;;;;;;;15.71;72.38;102259.50;5072949;28;20268;-36
2022/07/15 00:02:50;;;;;;;;;;;;;;;15.88;69.47;102265.97;5073814;28;20392;-36
2022/07/15 00:05:15;;;;;;;5.50;1.60;;;;;;;15.70;72.10;102266.84;5072837;28;19919;-36
2022/07/15 00:07:40;;;;;;;;;;;;;;;15.84;69.50;102264.78;5073790;28;20114;-36
2022/07/15 00:10:15;;;;;;;6.65;2.00;;;;;;;15.64;72.28;102264.22;5072765;28;20276;-36
2022/07/15 00:12:45;;;;;;;6.50;2.13;;;;;;;15.56;72.75;102262.59;5072697;28;20020;-36
2022/07/15 00:15:11;;;;;;;4.70;1.80;;;;;;;15.53;72.69;102259.53;5073461;28;20366;-36
2022/07/15 00:17:36;;;;;;;;;;;;;;;15.73;70.54;102273.75;5073740;28;20028;-37
2022/07/15 00:20:03;;;;;;;6.00;1.83;;;;;;;15.39;73.33;102273.31;5072400;28;19937;-36
2022/07/15 00:22:28;;;;;;;6.47;2.17;;;;;;;15.33;73.47;102265.22;5073018;28;20050;-36
2022/07/15 00:24:54;;;;;;;;;;;;;;;15.55;71.08;102266.41;5073307;28;20024;-36
2022/07/15 00:27:19;;;;;;;6.10;2.08;;;;;;;15.30;73.87;102273.84;5072974;28;19908;-36
2022/07/15 00:29:45;;;;;;;;;;;;;;;15.52;71.02;102272.31;5073019;28;20033;-36
2022/07/15 00:32:10;;;;;;;5.67;1.63;;;;;;;15.37;73.26;102256.38;5073286;28;19990;-36
2022/07/15 00:34:35;;;;;;;7.30;2.05;;;;;;;15.36;73.10;102262.84;5072274;28;20270;-36
2022/07/15 00:37:01;;;;;;;7.00;1.80;;;;;;;15.25;73.67;102247.28;5072884;28;20028;-36
2022/07/15 00:39:26;;;;;;;;;;;;;;;15.49;71.66;102264.59;5073172;28;20067;-36
2022/07/15 00:41:52;;;;;;;5.50;1.90;;;;;;;15.27;74.06;102249.75;5073029;28;19935;-36
2022/07/15 00:44:17;;;;;;;8.18;1.92;;;;;;;15.30;74.21;102255.59;5072497;28;20025;-36
2022/07/15 00:46:42;;;;;;;;;;;;;;;15.46;71.62;102262.31;5072576;28;20082;-36
2022/07/15 00:49:09;;;;;;;5.35;1.50;;;;;;;15.30;73.87;102263.78;5072348;28;19999;-36
2022/07/15 00:51:42;;;;;;;3.85;1.50;;;;;;;15.30;73.81;102257.50;5072830;28;20407;-36
2022/07/15 00:54:13;;;;;;;6.68;1.80;;;;;;;15.17;74.35;102251.13;5072828;28;20058;-36
2022/07/15 00:56:48;;;;;;;4.95;1.70;;;;;;;15.22;74.20;102263.25;5073867;28;20111;-36
2022/07/15 00:59:15;;;;;;;4.85;1.75;;;;;;;15.08;74.69;102247.06;5075972;28;20412;-36
2022/07/15 01:01:41;;;;;;;8.55;2.28;;;;;;;15.19;74.71;102264.53;5075998;28;20115;-36
2022/07/15 01:04:07;;;;;;;5.00;1.73;;;;;;;15.13;75.06;102249.09;5076732;28;20029;-36
2022/07/15 01:06:32;;;;;;;;;;;;;;;15.32;72.32;102252.63;5076834;28;20461;-36
2022/07/15 01:08:58;;;;;;;7.47;1.80;;;;;;;15.06;74.53;102249.16;5075793;28;20280;-37
2022/07/15 01:11:24;;;;;;;;;;;;;;;15.24;72.48;102253.78;5076439;28;20083;-36
2022/07/15 01:13:49;;;;;;;6.78;1.90;;;;;;;15.05;74.74;102261.13;5076362;28;19919;-36
2022/07/15 01:16:15;;;;;;;3.88;1.95;;;;;;;15.01;75.11;102254.47;5075587;28;20044;-36
2022/07/15 01:18:40;;;;;;;;;;;;;;;15.09;72.92;102256.91;5076726;28;20115;-36
2022/07/15 01:21:05;;;;;;;7.25;1.90;;;;;;;14.84;75.34;102256.97;5076645;28;19963;-36
2022/07/15 01:23:31;;;;;;;;;;;;;;;15.00;72.80;102257.41;5076248;28;20418;-36
2022/07/15 01:25:56;;;;;;;6.27;1.57;;;;;;;14.79;75.72;102254.06;5075439;28;19949;-36
2022/07/15 01:28:22;;;;;;;7.55;2.03;;;;;;;14.79;76.14;102254.06;5076140;28;20311;-36
2022/07/15 01:30:47;;;;;;;6.43;1.80;;;;;;;14.64;76.20;102243.53;5075660;28;20465;-36
2022/07/15 01:33:13;;;;;;;;;;;;;;;14.91;73.58;102262.31;5076489;28;20028;-36
2022/07/15 01:35:38;;;;;;;4.93;1.80;;;;;;;14.74;75.94;102263.94;5075503;28;20013;-36
2022/07/15 01:38:03;;;;;;;;;;;;;;;14.89;73.62;102270.72;5076249;28;20064;-36
2022/07/15 01:40:29;;;;;;;6.30;1.67;;;;;;;14.65;76.07;102261.53;5075462;28;19935;-36
2022/07/15 01:42:54;;;;;;;7.22;2.10;;;;;;;14.72;76.46;102269.63;5075174;28;20262;-36
2022/07/15 01:45:20;;;;;;;6.10;1.80;;;;;;;14.62;76.58;102264.69;5075548;28;20025;-36
2022/07/15 01:47:48;;;;;;;;;;;;;;;14.87;74.22;102272.81;5076598;28;20377;-36
2022/07/15 01:50:14;;;;;;;9.05;2.15;;;;;;;14.62;76.49;102261.97;5074962;28;19958;-36
2022/07/15 01:52:40;;;;;;;;;;;;;;;14.83;73.87;102274.34;5076517;28;20465;-36
2022/07/15 01:55:08;;;;;;;6.72;1.65;;;;;;;14.67;76.44;102275.75;5075909;28;19947;-36
2022/07/15 01:57:33;;;;;;;5.50;1.80;;;;;;;14.61;76.55;102271.19;5075437;28;20098;-36
2022/07/15 01:59:58;;;;;;;;;;;;;;;14.77;74.24;102269.78;5075250;28;20037;-36
2022/07/15 02:02:24;;;;;;;8.33;2.20;;;;;;;14.36;77.42;102262.19;5074836;28;19958;-37
2022/07/15 02:04:49;;;;;;;8.53;2.00;;;;;;;14.42;77.88;102278.44;5074903;28;20371;-36
2022/07/15 02:07:15;;;;;;;7.97;2.10;;;;;;;14.40;77.88;102266.13;5074795;28;20270;-36
2022/07/15 02:09:41;;;;;;;7.30;2.50;;;;;;;14.40;78.13;102280.56;5074588;28;20052;-36
2022/07/15 02:12:06;;;;;;;5.82;2.00;;;;;;;14.22;78.33;102277.78;5075147;28;20036;-37
2022/07/15 02:14:32;;;;;;;9.25;2.53;;;;;;;14.36;76.80;102279.34;5074905;28;20365;-36
2022/07/15 02:16:57;;;;;;;;;;;;;;;14.52;75.45;102283.41;5074913;28;20036;-36
2022/07/15 02:19:22;;;;;;;5.43;1.67;;;;;;;14.42;77.54;102272.19;5074394;28;19909;-36
2022/07/15 02:21:48;;;;;;;6.20;2.20;;;;;;;14.24;78.34;102278.38;5075063;28;20040;-36
2022/07/15 02:24:13;;;;;;;5.97;2.07;;;;;;;14.21;78.53;102270.66;5073326;28;20040;-36
2022/07/15 02:26:40;;;;;;;6.10;1.90;;;;;;;14.18;79.06;102265.66;5074932;28;20254;-37
2022/07/15 02:29:06;;;;;;;6.18;1.85;;;;;;;14.13;79.46;102265.47;5074580;28;20461;-36
2022/07/15 02:31:31;;;;;;;;;;;;;;;14.32;76.35;102272.66;5075762;28;20038;-36
2022/07/15 02:33:56;;;;;;;6.53;1.90;;;;;;;14.00;79.46;102252.81;5074417;28;19913;-36
2022/07/15 02:36:22;;;;;;;6.95;1.98;;;;;;;14.02;79.41;102260.75;5074569;28;20290;-36
2022/07/15 02:38:47;;;;;;;6.13;2.08;;;;;;;13.95;79.70;102257.22;5074440;28;20029;-36
2022/07/15 02:41:13;;;;;;;7.57;2.08;;;;;;;13.96;80.25;102269.78;5075070;28;20020;-36
2022/07/15 02:43:41;;;;;;;4.82;1.90;;;;;;;13.87;80.26;102271.94;5074753;28;20021;-36
2022/07/15 02:46:06;;;;;;;6.70;2.25;;;;;;;13.85;80.47;102272.13;5074963;28;20111;-36
2022/07/15 02:48:31;;;;;;;;;;;;;;;14.05;77.87;102272.00;5074547;28;20119;-36
2022/07/15 02:50:57;;;;;;;8.60;2.27;;;;;;;13.77;78.52;102268.88;5073862;28;19942;-36
2022/07/15 02:53:28;;;;;;;;;;;;;;;14.01;77.15;102272.69;5075057;28;20037;-36
2022/07/15 02:55:54;;;;;;;5.75;2.17;;;;;;;13.67;80.62;102263.06;5074086;28;19919;-36
2022/07/15 02:58:19;;;;;;;6.57;1.90;;;;;;;13.78;80.59;102278.69;5073042;28;20041;-36
2022/07/15 03:00:45;;;;;;;6.68;1.98;;;;;;;13.71;81.13;102280.59;5073901;28;20085;-36
2022/07/15 03:03:10;;;;;;;5.60;2.05;;;;;;;13.71;80.81;102277.88;5074664;28;20035;-37
2022/07/15 03:05:36;;;;;;;6.53;1.90;;;;;;;13.78;80.54;102301.25;5073582;28;20029;-36
2022/07/15 03:08:01;;;;;;;5.90;2.17;;;;;;;13.70;81.12;102300.66;5073827;28;20266;-37
2022/07/15 03:10:26;;;;;;;4.33;1.80;;;;;;;13.68;81.18;102309.06;5073748;28;20066;-36
2022/07/15 03:12:52;;;;;;;5.95;2.03;;;;;;;13.63;81.54;102306.97;5074148;28;20048;-36
2022/07/15 03:15:17;;;;;;;3.83;1.73;;;;;;;13.54;81.48;102296.56;5073594;28;20445;-36
2022/07/15 03:17:42;;;;;;;4.68;2.13;;;;;;;13.57;81.87;102312.44;5072313;28;20064;-36
2022/07/15 03:20:11;;;;;;;8.10;2.20;;;;;;;13.52;82.37;102310.38;5073382;28;20040;-36
2022/07/15 03:22:36;;;;;;;5.18;1.92;;;;;;;13.50;82.52;102312.47;5074122;28;20039;-38
2022/07/15 03:25:02;;;;;;;8.40;2.55;;;;;;;13.48;82.63;102317.28;5073044;28;20021;-45
2022/07/15 03:27:28;;;;;;;5.88;1.95;;;;;;;13.43;81.89;102311.66;5073725;28;20095;-36
2022/07/15 03:29:53;;;;;;;6.47;2.45;;;;;;;13.60;81.93;102326.41;5073607;28;20028;-36
2022/07/15 03:32:20;;;;;;;4.97;2.00;;;;;;;13.54;82.16;102318.31;5073673;28;20058;-36
2022/07/15 03:34:46;;;;;;;9.45;2.58;;;;;;;13.51;82.56;102321.44;5073225;28;20086;-36
2022/07/15 03:37:11;;;;;;;5.15;2.20;;;;;;;13.28;80.22;102287.47;5073313;28;20072;-36
2022/07/15 03:39:37;;;;;;;7.10;2.25;;;;;;;13.43;82.55;102322.53;5072888;28;20441;-36
2022/07/15 03:42:02;;;;;;;5.63;2.45;;;;;;;13.40;83.32;102317.50;5073519;28;20036;-36
2022/07/15 03:44:27;;;;;;;4.80;2.33;;;;;;;13.40;83.63;102322.94;5072797;28;20025;-36
2022/07/15 03:46:53;;;;;;;6.43;2.43;;;;;;;13.47;83.36;102323.78;5072951;28;20028;-36
2022/07/15 03:49:18;;;;;;;5.60;2.13;;;;;;;13.47;83.46;102321.06;5073277;28;20323;-36
2022/07/15 03:51:44;;;;;;;6.18;2.22;;;;;;;13.45;83.47;102327.75;5073369;28;20048;-36
2022/07/15 03:54:09;;;;;;;7.00;2.58;;;;;;;13.44;83.70;102328.78;5072963;28;20021;-36
2022/07/15 03:56:34;;;;;;;5.47;2.15;;;;;;;13.36;83.73;102332.56;5073705;28;20024;-36
2022/07/15 03:59:00;;;;;;;5.40;1.90;;;;;;;13.42;83.92;102339.88;5072922;28;20046;-36
2022/07/15 04:01:26;;;;;;;6.80;2.05;;;;;;;13.39;84.06;102338.41;5073220;28;20037;-36
2022/07/15 04:03:52;;;;;;;6.13;2.25;;;;;;;13.44;83.90;102345.94;5072920;28;20373;-36
2022/07/15 04:06:18;;;;;;;;;;;;;;;13.65;81.54;102342.91;5073726;28;20036;-36
2022/07/15 04:08:44;;;;;;;6.65;2.30;;;;;;;13.49;84.05;102337.13;5072821;28;20341;-36
2022/07/15 04:11:10;;;;;;;;;;;;;;;13.68;81.43;102340.84;5072960;28;20056;-36
2022/07/15 04:13:35;;;;;;;9.02;2.25;;;;;;;13.55;83.58;102336.28;5072470;28;19958;-36
2022/07/15 04:16:01;;;;;;;6.10;2.08;;;;;;;13.55;84.19;102342.53;5073571;28;20361;-36
2022/07/15 04:18:26;;;;;;;6.43;2.72;;;;;;;13.52;84.41;102339.44;5073294;28;20074;-36
2022/07/15 04:20:51;;;;;;;6.70;2.73;;;;;;;13.59;84.20;102340.25;5072403;28;20426;-36
2022/07/15 04:23:17;;;;;;;7.93;2.53;;;;;;;13.66;83.25;102349.19;5073246;28;20138;-36
2022/07/15 04:25:42;;;;;;;5.65;2.10;;;;;;;13.74;83.80;102342.69;5072926;28;20032;-36
2022/07/15 04:28:08;;;;;;;7.25;2.25;;;;;;;13.79;83.15;102329.28;5073131;28;20052;-36
2022/07/15 04:30:33;;;;;;;5.25;2.20;;;;;;;13.95;82.84;102341.53;5072552;28;20066;-36
2022/07/15 04:32:59;;;;;;;6.88;2.75;;;;;;;13.88;82.91;102317.09;5077223;28;20349;-36
2022/07/15 04:35:24;;;;;;;5.57;2.20;;;;;;;13.99;83.04;102337.34;5076848;28;20021;-36
2022/07/15 04:37:50;;;;;;;4.65;2.05;;;;;;;14.04;82.77;102321.19;5077446;28;20159;-36
2022/07/15 04:40:15;;;;;;;6.78;2.10;;;;;;;14.15;82.68;102334.97;5076489;28;20024;-36
2022/07/15 04:42:40;;;;;;;5.15;1.90;;;;;;;14.27;82.79;102345.97;5076895;28;20029;-36
2022/07/15 04:45:06;;;;;;;5.85;2.30;;;;;;;14.36;81.73;102355.53;5076586;28;20103;-36
2022/07/15 04:47:31;;;;;;;;;;;;;;;14.52;80.57;102354.19;5076695;28;20028;-36
2022/07/15 04:52:46;;;;;;;5.63;1.88;;;;;;;14.43;81.17;102355.47;5077671;28;20106;-36
2022/07/15 04:55:12;;;;;;;7.70;2.00;;;;;;;14.51;82.16;102357.16;5076563;28;20540;-35
2022/07/15 04:57:37;;;;;;;4.13;1.70;;;;;;;14.60;81.24;102356.66;5076283;28;20412;-36
2022/07/15 05:00:03;;;;;;;;;;;;;;;14.77;79.94;102356.09;5077075;28;20036;-36
2022/07/15 05:02:29;;;;;;;6.40;1.50;;;;;;;14.71;80.88;102348.81;5076619;28;19915;-36
2022/07/15 05:04:54;;;;;;;4.78;2.05;;;;;;;14.86;80.54;102357.50;5077078;28;20017;-36
2022/07/15 05:07:19;;;;;;;6.07;2.07;;;;;;;14.83;80.38;102361.47;5076061;28;20417;-36
2022/07/15 05:09:45;;;;;;;5.95;1.98;;;;;;;14.97;80.49;102353.19;5075946;28;20758;-36
2022/07/15 05:12:10;;;;;;;;;;;;;;;15.09;79.48;102357.69;5076461;28;20532;-36
2022/07/15 05:14:38;;;;;;;2.50;1.35;;;;;;;15.10;79.81;102356.63;5076023;28;19920;-36
2022/07/15 05:17:03;;;;;;;4.78;1.67;;;;;;;15.12;78.98;102365.41;5074753;28;20067;-36
2022/07/15 05:19:28;;;;;;;;;;;;;;;15.32;78.55;102367.09;5076178;28;20075;-36
2022/07/15 05:21:53;;;;;;;4.43;1.53;;;;;;;15.32;78.33;102362.47;5076464;28;19912;-36
2022/07/15 05:24:19;;;;;;;;;;;;;;;15.49;78.14;102364.63;5076413;28;20090;-36
2022/07/15 05:26:44;;;;;;;4.57;1.50;;;;;;;15.44;78.00;102360.69;5076189;28;19916;-36
2022/07/15 05:29:09;;;;;;;;;;;;;;;15.63;77.30;102367.00;5076176;28;20029;-36
2022/07/15 05:31:35;;;;;;;7.53;2.40;;;;;;;15.60;77.62;102372.03;5075882;28;19912;-36
2022/07/15 05:34:00;;;;;;;8.20;2.20;;;;;;;15.53;77.29;102344.88;5075743;28;20449;-36
2022/07/15 05:36:26;;;;;;;4.97;1.83;;;;;;;15.74;76.87;102359.13;5075817;28;20111;-36
2022/07/15 05:38:52;;;;;;;5.40;1.75;;;;;;;15.85;76.01;102361.91;5075509;28;20293;-36
2022/07/15 05:41:18;;;;;;;4.90;1.80;;;;;;;15.86;76.79;102352.69;5075513;28;20066;-36
2022/07/15 05:43:43;;;;;;;;;;;;;;;16.03;76.11;102352.84;5075311;28;20029;-36
2022/07/15 05:46:09;;;;;;;8.00;2.73;;;;;;;15.94;76.03;102355.06;5075836;28;19908;-36
2022/07/15 05:48:35;;;;;;;5.40;1.70;;;;;;;15.89;75.93;102351.38;5075181;28;20302;-36
2022/07/15 05:51:01;;;;;;;6.13;1.60;;;;;;;15.90;76.46;102353.84;5075752;28;20411;-36
2022/07/15 05:53:26;;;;;;;;;;;;;;;16.12;75.68;102347.91;5075795;28;20071;-36
2022/07/15 05:55:52;;;;;;;7.37;1.83;;;;;;;16.05;75.99;102358.91;5075585;28;19912;-36
2022/07/15 05:58:18;;;;;;;4.93;1.60;;;;;;;16.09;75.49;102341.00;5074923;28;20275;-36
2022/07/15 06:00:43;;;;;;;;;;;;;;;16.36;75.01;102346.94;5075895;28;20043;-36
2022/07/15 06:03:08;;;;;;;4.57;1.40;;;;;;;16.35;74.29;102347.19;5090644;28;19912;-36
2022/07/15 06:05:33;;;;;;;;;;;;;;;16.53;74.29;102349.81;5075204;28;20029;-36
2022/07/15 06:07:59;;;;;;;4.23;1.17;;;;;;;16.38;72.52;102336.59;5074907;28;19912;-36
2022/07/15 06:10:25;;;;;;;6.25;1.38;;;;;;;16.41;71.10;102344.34;5075017;28;20029;-36
2022/07/15 06:12:52;;;;;;;;;;;;;;;16.60;72.81;102353.28;5075912;28;20108;-36
2022/07/15 06:15:18;;;;;;;;;;;;;;;16.55;72.04;102350.44;5075824;28;19916;-37
2022/07/15 06:17:43;;;;;;;6.03;1.65;;;;;;;16.46;71.80;102351.81;5073885;28;20248;-36
2022/07/15 06:20:09;;;;;;;;;;;;;;;16.59;72.59;102351.63;5075022;28;20052;-36
2022/07/15 06:22:35;;;;;;;7.50;1.25;;;;;;;16.61;70.90;102346.75;5075326;28;20364;-36
2022/07/15 06:25:00;;;;;;;;;;;;;;;16.78;71.66;102343.34;5075709;28;20059;-36
2022/07/15 06:27:25;;;;;;;6.27;1.30;;;;;;;16.66;70.02;102354.25;5074796;28;19912;-36
2022/07/15 06:29:51;;;;;;;;;;;;;;;16.81;70.98;102348.34;5073841;28;20654;-36
2022/07/15 06:32:17;;;;;;;5.88;1.23;;;;;;;16.78;70.37;102352.38;5074238;28;19919;-36
2022/07/15 06:34:43;;;;;;;4.82;1.25;;;;;;;16.80;69.22;102335.75;5074525;28;20384;-36
2022/07/15 06:37:08;;;;;;;;;;;;;;;17.05;70.39;102347.28;5075637;28;20034;-36
2022/07/15 06:39:34;;;;;;;4.35;1.20;;;;;;;16.89;69.41;102337.91;5074596;28;19908;-36
2022/07/15 06:41:59;;;;;;;;;;;;;;;17.16;70.45;102348.34;5074559;28;20085;-36
2022/07/15 06:44:25;;;;;;;4.78;1.30;;;;;;;16.88;69.51;102336.22;5074289;28;19915;-36
2022/07/15 06:46:50;;;;;;;;;;;;;;;17.14;69.81;102340.41;5075013;28;20032;-36
2022/07/15 06:49:15;;;;;;;5.57;1.33;;;;;;;17.06;69.31;102357.16;5074752;28;19908;-36
2022/07/15 06:51:41;;;;;;;6.53;1.53;;;;;;;17.10;66.97;102349.31;5074834;28;20283;-36
2022/07/15 06:54:07;;;;;;;;;;;;;;;17.24;68.15;102351.56;5074253;28;20274;-36
2022/07/15 06:56:32;;;;;;;10.15;1.48;;;;;;;17.15;67.20;102346.69;5074122;28;19909;-36
2022/07/15 06:58:57;;;;;;;;;;;;;;;17.30;67.99;102355.25;5074410;28;20028;-36
2022/07/15 07:01:23;;;;;;;2.97;0.87;;;;;;;17.25;66.18;102346.91;5073742;28;19961;-36
2022/07/15 07:03:48;;;;;;;;;;;;;;;17.42;66.40;102344.28;5074301;28;20328;-36
2022/07/15 07:06:13;;;;;;;5.88;1.00;;;;;;;17.32;64.90;102357.72;5073598;28;20376;-36
2022/07/15 07:08:39;;;;;;;;;;;;;;;17.39;66.27;102351.06;5074760;28;20028;-36
2022/07/15 07:11:04;;;;;;;2.97;0.93;;;;;;;17.28;65.28;102345.63;5073772;28;19908;-36
2022/07/15 07:13:29;;;;;;;;;;;;;;;17.42;65.66;102356.06;5074179;28;20112;-36
2022/07/15 07:15:55;;;;;;;3.47;0.90;;;;;;;17.41;63.31;102353.56;5073807;28;19927;-36
2022/07/15 07:18:20;;;;;;;;;;;;;;;17.56;64.90;102358.53;5074028;28;20100;-36
2022/07/15 07:20:45;;;;;;;5.87;1.10;;;;;;;17.42;63.21;102344.28;5073643;28;19912;-36
2022/07/15 07:23:10;;;;;;;;;;;;;;;17.64;64.45;102358.16;5074765;28;20267;-36
2022/07/15 07:25:36;;;;;;;3.93;0.87;;;;;;;17.61;62.58;102355.88;5073943;28;19912;-36
2022/07/15 07:28:03;;;;;;;;;;;;;;;17.81;63.94;102358.25;5074185;28;20386;-36
2022/07/15 07:30:29;;;;;;;4.60;1.17;;;;;;;17.67;61.50;102363.97;5073417;28;19916;-36
2022/07/15 07:32:55;;;;;;;3.28;0.95;;;;;;;17.73;61.96;102364.94;5073219;28;20540;-37
2022/07/15 07:35:20;;;;;;;;;;;;;;;17.82;61.91;102368.16;5073373;28;20115;-36
2022/07/15 07:37:45;;;;;;;4.15;1.00;;;;;;;17.68;61.51;102367.53;5073019;28;19908;-36
2022/07/15 07:40:11;;;;;;;;;;;;;;;17.74;62.26;102369.34;5073691;28;20028;-36
2022/07/15 07:42:36;;;;;;;5.25;0.95;;;;;;;17.44;61.79;102361.28;5073218;28;19909;-36
2022/07/15 07:45:02;;;;;;;;;;;;;;;17.51;62.53;102370.19;5073556;28;20039;-36
2022/07/15 07:47:27;;;;;;;3.80;1.10;;;;;;;17.46;61.18;102376.38;5073033;28;19912;-36
2022/07/15 07:49:53;;;;;;;;;;;;;;;17.64;62.90;102378.13;5074164;28;20029;-36
2022/07/15 07:52:18;;;;;;;4.57;1.33;;;;;;;17.73;61.25;102371.25;5073485;28;20011;-36
2022/07/15 07:54:43;;;;;;;;;;;;;;;17.94;62.60;102385.34;5073401;28;20295;-36
2022/07/15 07:57:10;;;;;;;4.00;1.30;;;;;;;17.90;61.47;102370.47;5073704;28;19954;-36
2022/07/15 07:59:35;;;;;;;4.97;1.35;;;;;;;17.70;59.97;102344.34;5073677;28;20414;-36
2022/07/15 08:02:01;;;;;;;;;;;;;;;17.87;60.64;102369.06;5073179;28;20071;-36
2022/07/15 08:04:26;;;;;;;3.35;0.90;;;;;;;17.82;61.47;102362.66;5072883;28;20362;-36
2022/07/15 08:06:52;;;;;;;;;;;;;;;17.98;61.68;102364.63;5073156;28;20483;-36
2022/07/15 08:09:17;;;;;;;6.03;1.13;;;;;;;18.14;59.54;102363.00;5073055;28;19919;-36
2022/07/15 08:11:44;;;;;;;;;;;;;;;18.32;60.09;102357.34;5072969;28;20025;-36
2022/07/15 08:14:10;;;;;;;7.35;1.23;;;;;;;18.40;59.26;102365.16;5073028;28;19912;-36
2022/07/15 08:16:35;;;;;;;5.32;1.00;;;;;;;18.44;59.03;102366.31;5073533;28;20131;-36
2022/07/15 08:19:01;;;;;;;;;;;;;;;18.57;58.96;102370.66;5073184;28;20111;-36
2022/07/15 08:21:26;;;;;;;5.60;1.10;;;;;;;18.44;57.34;102354.50;5073094;28;19962;-36
2022/07/15 08:23:51;;;;;;;;;;;;;;;18.58;57.29;102372.31;5073737;28;20029;-36
2022/07/15 08:26:23;;;;;;;4.20;0.90;;;;;;;18.46;57.32;102364.16;5072700;28;19978;-36
2022/07/15 08:28:50;;;;;;;4.35;1.10;;;;;;;18.52;57.51;102365.91;5073271;28;20259;-36
2022/07/15 08:31:16;;;;;;;6.85;1.15;;;;;;;18.76;57.27;102368.53;5072478;28;20384;-36
2022/07/15 08:33:41;;;;;;;4.50;1.10;;;;;;;18.86;56.50;102373.34;5072602;28;20024;-36
2022/07/15 08:36:07;;;;;;;;;;;;;;;19.11;58.30;102365.50;5073255;28;20055;-36
2022/07/15 08:38:32;;;;;;;2.95;0.85;;;;;;;19.29;55.95;102367.16;5072900;28;19908;-36
2022/07/15 08:40:58;;;;;;;3.42;0.90;;;;;;;19.42;54.14;102364.06;5072863;28;20381;-36
2022/07/15 08:43:23;;;;;;;4.25;1.00;;;;;;;19.49;54.14;102367.44;5072127;28;20063;-36
2022/07/15 08:45:49;;;;;;;3.65;1.00;;;;;;;19.40;53.30;102368.94;5073272;28;20505;-36
2022/07/15 08:48:17;;;;;;;2.65;0.80;;;;;;;19.03;53.15;102363.19;5072738;28;20039;-43
2022/07/15 08:50:43;;;;;;;3.83;0.90;;;;;;;18.79;54.45;102348.88;5072411;28;20084;-36
2022/07/15 08:53:08;;;;;;;2.78;0.80;;;;;;;19.14;54.72;102356.81;5072620;28;20181;-36
2022/07/15 08:55:34;;;;;;;;;;;;;;;19.40;55.82;102360.72;5073006;28;20025;-37
2022/07/15 08:57:59;;;;;;;5.05;1.35;;;;;;;19.29;53.66;102353.44;5073091;28;20000;-37
2022/07/15 09:00:28;;;;;;;4.53;0.90;;;;;;;19.34;52.43;102355.44;5072235;28;20104;-36
2022/07/15 09:03:02;;;;;;;3.85;0.90;;;;;;;19.61;53.77;102347.28;5072425;28;20032;-36
2022/07/15 09:05:36;;;;;;;4.00;0.90;;;;;;;19.54;53.00;102342.81;5072304;28;20055;-37
2022/07/15 09:08:13;;;;;;;3.13;1.02;;;;;;;19.87;53.31;102346.53;5073043;28;20028;-36
2022/07/15 09:10:46;;;;;;;4.78;1.15;;;;;;;19.76;52.65;102348.34;5072021;28;20473;-37
2022/07/15 09:13:35;;;;;;;3.45;1.10;;;;;;;19.96;50.77;102344.13;5071874;28;20028;-36
2022/07/15 09:16:19;;;;;;;3.25;0.80;;;;;;;20.20;50.29;102355.66;5010397;28;20151;-37
2022/07/15 09:18:44;;;;;;;3.65;0.70;;;;;;;20.21;50.84;102340.84;5013987;28;20340;-37
2022/07/15 09:21:18;;;;;;;3.55;0.90;;;;;;;20.30;50.01;102345.63;5013751;28;20049;-37
2022/07/15 09:23:44;;;;;;;2.65;0.93;;;;;;;20.52;50.46;102342.00;5014203;28;20102;-37
2022/07/15 09:26:29;;;;;;;3.33;0.82;;;;;;;20.62;50.47;102322.84;5014391;28;20034;-37
2022/07/15 09:28:56;;;;;;;4.68;1.10;;;;;;;20.85;49.29;102351.88;5014316;28;20061;-36
2022/07/15 09:34:24;;;;;;;3.45;0.90;;;;;;;20.53;48.65;102349.97;5013677;28;20070;-36
2022/07/15 09:36:54;;;;;;;5.28;1.10;;;;;;;20.46;49.58;102343.00;5013701;28;20085;-37
2022/07/15 09:39:21;;;;;;;2.60;0.80;;;;;;;20.28;49.23;102349.69;5013699;28;20041;-36
2022/07/15 09:41:48;;;;;;;2.78;0.80;;;;;;;20.09;48.45;102351.16;5014090;28;20049;-36
2022/07/15 09:44:19;;;;;;;2.75;0.95;;;;;;;20.04;49.75;102336.28;5013445;28;20026;-37
2022/07/15 09:46:49;;;;;;;3.00;0.90;;;;;;;20.02;49.99;102341.22;5013375;28;20126;-36
2022/07/15 09:49:24;;;;;;;2.88;0.90;;;;;;;20.15;51.19;102344.63;5013183;28;20036;-36
2022/07/15 09:51:53;;;;;;;3.22;0.70;;;;;;;20.51;48.91;102341.16;5013660;28;20049;-37
2022/07/15 09:54:18;;;;;;;2.47;0.88;;;;;;;20.83;48.00;102327.38;5053581;28;20037;-37
2022/07/15 09:56:48;;;;;;;3.67;0.82;;;;;;;20.99;47.53;102342.09;5053100;28;20029;-36
2022/07/15 09:59:15;;;;;;;4.00;0.90;;;;;;;20.59;47.93;102331.59;5053207;28;20481;-37
2022/07/15 10:01:41;;;;;;;4.13;0.90;;;;;;;20.49;48.30;102328.75;5053026;28;20110;-37
2022/07/15 10:04:06;;;;;;;2.30;0.60;;;;;;;20.26;47.03;102340.91;5052723;28;20041;-36
2022/07/15 10:06:37;;;;;;;3.10;0.60;;;;;;;20.11;47.74;102338.84;5052901;28;20033;-36
2022/07/15 10:09:05;;;;;;;2.20;0.68;;;;;;;20.22;48.25;102340.59;5052714;28;20029;-36
2022/07/15 10:11:33;;;;;;;3.63;0.85;;;;;;;20.53;46.92;102324.41;5064969;28;20039;-36
2022/07/15 10:14:35;;;;;;;3.58;0.90;;;;;;;21.02;47.94;102325.03;5074857;28;20071;-36
2022/07/15 10:17:04;;;;;;;1.95;0.60;;;;;;;21.45;45.69;102320.34;5075625;28;20419;-37
2022/07/15 10:19:53;;;;;;;2.83;0.82;;;;;;;21.91;46.36;102325.19;5074473;28;20047;-48
2022/07/15 10:22:53;;;;;;;3.08;0.82;;;;;;;22.21;44.71;102327.22;5075267;28;20028;-37
2022/07/15 10:26:17;;;;;;;3.95;1.42;;;;;;;22.05;44.81;102313.38;5075177;28;20036;-37
2022/07/15 10:28:55;;;;;;;3.33;0.60;;;;;;;22.01;43.63;102319.69;5011735;28;20049;-37
2022/07/15 10:31:29;;;;;;;3.50;0.75;;;;;;;21.67;45.05;102303.66;5012386;28;20057;-36
2022/07/15 10:34:04;;;;;;;4.85;1.70;;;;;;;21.81;45.03;102317.72;5012801;28;20156;-37
2022/07/15 10:36:53;;;;;;;3.78;1.90;;;;;;;21.65;45.03;102316.84;5012656;28;20045;-37
2022/07/15 10:39:20;;;;;;;2.83;0.85;;;;;;;21.76;42.89;102299.25;5012662;28;20116;-37
2022/07/15 10:42:03;;;;;;;1.85;0.50;;;;;;;22.19;43.41;102299.94;5013192;28;20034;-37
2022/07/15 10:44:48;;;;;;;2.65;0.60;;;;;;;22.62;41.64;102308.75;5012517;28;20045;-37
2022/07/15 10:47:13;;;;;;;1.33;0.50;;;;;;;22.74;40.15;102279.00;5012758;28;20079;-37
2022/07/15 10:49:40;;;;;;;3.17;0.70;;;;;;;22.90;40.05;102290.84;5012212;28;20064;-37
2022/07/15 10:52:21;;;;;;;3.50;0.70;;;;;;;22.50;40.79;102291.69;5012096;28;20781;-37
2022/07/15 10:54:55;;;;;;;3.97;0.70;;;;;;;22.61;41.46;102287.81;5012148;28;20121;-36
2022/07/15 10:57:44;;;;;;;2.33;0.60;;;;;;;22.71;39.84;102282.28;5012132;28;20038;-37
2022/07/15 11:00:15;;;;;;;2.50;0.52;;;;;;;22.91;41.78;102275.13;5012421;28;20122;-37
2022/07/15 11:03:08;;;;;;;1.80;0.57;;;;;;;22.67;41.91;102264.66;5013034;28;20034;-37
2022/07/15 11:05:49;;;;;;;3.05;0.70;;;;;;;22.82;41.35;102261.84;5074428;28;20460;-37
2022/07/15 11:08:36;;;;;;;2.53;0.70;;;;;;;22.99;40.78;102266.28;5073622;28;20024;-37
2022/07/15 11:11:13;;;;;;;2.45;0.80;;;;;;;23.19;39.88;102274.47;5074027;28;20037;-37
2022/07/15 11:13:38;;;;;;;1.27;0.47;;;;;;;22.47;39.52;102265.50;5073938;28;20480;-36
2022/07/15 11:16:06;;;;;;;1.73;0.50;;;;;;;22.52;40.40;102286.72;5073716;28;20032;-37
2022/07/15 11:18:45;;;;;;;2.17;0.70;;;;;;;22.73;40.21;102271.78;5074389;28;20124;-36
2022/07/15 11:21:10;;;;;;;1.27;0.50;;;;;;;22.74;39.94;102275.38;5073593;28;20025;-37
2022/07/15 11:23:37;;;;;;;1.58;0.47;;;;;;;23.05;40.43;102259.63;5073609;28;20090;-37
2022/07/15 11:26:02;;;;;;;1.52;0.43;;;;;;;23.36;38.82;102274.13;5073274;28;20445;-37
2022/07/15 11:28:27;;;;;;;1.63;0.60;;;;;;;23.55;39.00;102268.78;5073965;28;20056;-37
2022/07/15 11:30:55;;;;;;;2.75;0.50;;;;;;;23.48;39.42;102263.59;5073380;28;20462;-37
2022/07/15 11:33:25;;;;;;;2.67;0.70;;;;;;;23.95;38.33;102255.88;5073496;28;20392;-37
2022/07/15 11:36:00;;;;;;;4.45;0.80;;;;;;;24.25;38.43;102261.16;5073731;28;20079;-37
2022/07/15 11:38:30;;;;;;;2.33;0.70;;;;;;;24.03;37.50;102256.09;5073149;28;20048;-37
2022/07/15 11:46:30;;;;;;;2.10;0.60;;;;;;;24.44;37.00;102241.94;5073566;28;20059;-37
2022/07/15 11:48:57;;;;;;;1.45;0.50;;;;;;;24.58;36.00;102256.75;5073589;28;20043;-37
2022/07/15 11:51:26;;;;;;;2.63;0.50;;;;;;;24.67;37.38;102249.47;5073356;28;20126;-37